Time;durP1;ratioP1;P1;durP2;ratioP2;P2;SDS_P1;SDS_P2;PMS_P1;PMS_P2;Temp;Humidity;BMP_temperature;BMP_pressure;BME280_temperature;BME280_humidity;BME280_pressure;Samples;Min_cycle;Max_cycle;Signal;HPM_P1;HPM_P2
2022/06/19 00:02:22;;;;;;;;;;;25.50;96.10;;;;;;4344245;33;43987;-80
2022/06/19 00:04:54;;;;;;;;;;;25.50;96.10;;;;;;4345815;33;43112;-81
2022/06/19 00:07:21;;;;;;;;;;;25.50;96.10;;;;;;4344735;33;42859;-80
2022/06/19 00:09:49;;;;;;;;;;;25.50;96.10;;;;;;4344486;33;44040;-81
2022/06/19 00:12:17;;;;;;;;;;;25.40;96.10;;;;;;4345245;33;43367;-81
2022/06/19 00:14:45;;;;;;;;;;;25.40;96.10;;;;;;4344462;33;44264;-81
2022/06/19 00:17:14;;;;;;;;;;;25.40;96.20;;;;;;4345618;33;45236;-82
2022/06/19 00:19:42;;;;;;;;;;;25.40;96.30;;;;;;4344507;33;43018;-81
2022/06/19 00:22:10;;;;;;;;;;;25.30;96.30;;;;;;4344592;33;46197;-81
2022/06/19 00:24:37;;;;;;;;;;;25.30;96.40;;;;;;4344393;33;42611;-80
2022/06/19 00:27:07;;;;;;;;;;;25.30;96.30;;;;;;4345541;33;44161;-80
2022/06/19 00:29:34;;;;;;;;;;;25.20;96.40;;;;;;4344504;33;43242;-79
2022/06/19 00:32:04;;;;;;;;;;;25.20;96.50;;;;;;4344970;33;43533;-80
2022/06/19 00:34:32;;;;;;;;;;;25.10;96.60;;;;;;4344546;33;43537;-80
2022/06/19 00:37:01;;;;;;;;;;;25.10;96.50;;;;;;4344254;33;43218;-80
2022/06/19 00:39:28;;;;;;;;;;;25.10;97.00;;;;;;4343900;33;43285;-80
2022/06/19 00:41:55;;;;;;;;;;;25.10;96.70;;;;;;4344901;33;43805;-79
2022/06/19 00:44:23;;;;;;;;;;;25.00;96.80;;;;;;4344185;33;43878;-79
2022/06/19 00:46:50;;;;;;;;;;;25.00;96.90;;;;;;4343858;33;44578;-80
2022/06/19 00:49:20;;;;;;;;;;;25.00;96.90;;;;;;4345020;33;44497;-79
2022/06/19 00:51:50;;;;;;;;;;;25.00;96.90;;;;;;4345324;33;44057;-79
2022/06/19 00:54:18;;;;;;;;;;;25.00;96.90;;;;;;4344291;33;43234;-79
2022/06/19 00:56:45;;;;;;;;;;;25.00;97.00;;;;;;4345215;33;44236;-79
2022/06/19 00:59:13;;;;;;;;;;;25.10;96.90;;;;;;4343677;33;42533;-79
2022/06/19 01:01:42;;;;;;;;;;;25.10;96.90;;;;;;4348360;32;43989;-79
2022/06/19 01:04:17;;;;;;;;;;;25.10;96.90;;;;;;4360398;33;43810;-79
2022/06/19 01:06:44;;;;;;;;;;;25.10;96.90;;;;;;4360108;33;43611;-79
2022/06/19 01:09:11;;;;;;;;;;;25.10;96.90;;;;;;4359912;32;42483;-79
2022/06/19 01:11:38;;;;;;;;;;;25.10;96.80;;;;;;4346142;33;44317;-80
2022/06/19 01:14:08;;;;;;;;;;;25.00;97.30;;;;;;4346172;33;42042;-79
2022/06/19 01:16:36;;;;;;;;;;;25.00;96.90;;;;;;4359369;32;44582;-79
2022/06/19 01:19:04;;;;;;;;;;;25.00;97.00;;;;;;4359397;32;42890;-79
2022/06/19 01:21:40;;;;;;;;;;;25.00;97.10;;;;;;4346198;33;43297;-79
2022/06/19 01:24:30;;;;;;;;;;;25.00;97.10;;;;;;4346289;33;44098;-79
2022/06/19 01:27:00;;;;;;;;;;;25.00;97.20;;;;;;4355283;32;43337;-79
2022/06/19 01:29:30;;;;;;;;;;;25.00;97.10;;;;;;4359806;32;46024;-79
2022/06/19 01:31:57;;;;;;;;;;;24.90;97.20;;;;;;4360981;33;20005;-79
2022/06/19 01:34:28;;;;;;;;;;;25.00;97.10;;;;;;4346095;33;42401;-78
2022/06/19 01:37:15;;;;;;;;;;;25.00;97.10;;;;;;4346505;33;43471;-78
2022/06/19 01:39:46;;;;;;;;;;;25.10;97.10;;;;;;4346642;33;45749;-79
2022/06/19 01:42:14;;;;;;;;;;;25.10;97.00;;;;;;4346033;33;43872;-79
2022/06/19 01:44:42;;;;;;;;;;;25.00;96.90;;;;;;4359740;32;44131;-79
2022/06/19 01:47:10;;;;;;;;;;;25.00;96.80;;;;;;4345999;33;42867;-80
2022/06/19 01:49:37;;;;;;;;;;;25.00;96.80;;;;;;4359194;32;45197;-79
2022/06/19 01:52:05;;;;;;;;;;;25.00;96.90;;;;;;4346608;33;45376;-79
2022/06/19 01:54:43;;;;;;;;;;;25.00;96.90;;;;;;4347078;32;44153;-79
2022/06/19 01:57:11;;;;;;;;;;;25.00;96.80;;;;;;4349106;32;45338;-79
2022/06/19 01:59:40;;;;;;;;;;;25.00;96.70;;;;;;4348950;32;43853;-78
2022/06/19 02:02:09;;;;;;;;;;;25.00;96.70;;;;;;4349640;32;20072;-78
2022/06/19 02:04:36;;;;;;;;;;;25.00;96.60;;;;;;4348530;32;43877;-79
2022/06/19 02:07:06;;;;;;;;;;;25.00;96.30;;;;;;4362221;32;44096;-78
2022/06/19 02:09:34;;;;;;;;;;;25.00;96.10;;;;;;4362352;32;44042;-79
2022/06/19 02:12:02;;;;;;;;;;;24.90;95.90;;;;;;4349020;32;44207;-78
2022/06/19 02:14:30;;;;;;;;;;;25.00;95.80;;;;;;4348516;32;44641;-78
2022/06/19 02:16:59;;;;;;;;;;;24.90;95.80;;;;;;4348410;32;42589;-78
2022/06/19 02:19:27;;;;;;;;;;;24.90;95.60;;;;;;4361676;32;43412;-79
2022/06/19 02:21:55;;;;;;;;;;;24.90;95.10;;;;;;4348782;32;45810;-79
2022/06/19 02:24:24;;;;;;;;;;;24.90;95.00;;;;;;4348486;32;44203;-79
2022/06/19 02:26:54;;;;;;;;;;;24.80;95.00;;;;;;4348096;32;45618;-77
2022/06/19 02:29:21;;;;;;;;;;;24.80;94.90;;;;;;4348832;32;43514;-78
2022/06/19 02:31:51;;;;;;;;;;;24.70;94.80;;;;;;4348339;32;43733;-79
2022/06/19 02:34:32;;;;;;;;;;;24.70;94.50;;;;;;4349064;32;44241;-78
2022/06/19 02:37:01;;;;;;;;;;;24.60;94.20;;;;;;4348508;32;43113;-79
2022/06/19 02:39:34;;;;;;;;;;;24.60;94.00;;;;;;4348419;32;44157;-78
2022/06/19 02:42:19;;;;;;;;;;;24.50;94.00;;;;;;4348608;32;43286;-78
2022/06/19 02:44:50;;;;;;;;;;;24.50;93.90;;;;;;4348636;32;44183;-79
2022/06/19 02:47:18;;;;;;;;;;;24.50;93.80;;;;;;4348502;32;44298;-77
2022/06/19 02:49:45;;;;;;;;;;;24.40;93.40;;;;;;4348400;32;43323;-78
2022/06/19 02:52:13;;;;;;;;;;;24.30;93.20;;;;;;4348153;32;45173;-79
2022/06/19 02:54:40;;;;;;;;;;;24.30;93.70;;;;;;4348217;32;43580;-79
2022/06/19 02:57:11;;;;;;;;;;;24.30;93.60;;;;;;4348457;32;44209;-78
2022/06/19 02:59:41;;;;;;;;;;;24.20;93.40;;;;;;4347753;32;43494;-78
2022/06/19 03:02:09;;;;;;;;;;;24.20;92.70;;;;;;4345109;33;43813;-78
2022/06/19 03:04:39;;;;;;;;;;;24.10;92.90;;;;;;4345858;33;20016;-79
2022/06/19 03:07:06;;;;;;;;;;;24.10;92.60;;;;;;4345581;33;45156;-79
2022/06/19 03:09:34;;;;;;;;;;;24.10;92.20;;;;;;4345448;33;44056;-79
2022/06/19 03:12:01;;;;;;;;;;;24.10;92.30;;;;;;4346597;33;44186;-78
2022/06/19 03:14:28;;;;;;;;;;;24.00;92.20;;;;;;4345478;33;43776;-78
2022/06/19 03:16:55;;;;;;;;;;;24.00;92.90;;;;;;4344861;33;43528;-78
2022/06/19 03:19:23;;;;;;;;;;;23.90;91.80;;;;;;4344835;33;44871;-78
2022/06/19 03:21:50;;;;;;;;;;;23.90;91.70;;;;;;4345027;33;45781;-80
2022/06/19 03:24:17;;;;;;;;;;;23.80;91.90;;;;;;4344918;33;43788;-79
2022/06/19 03:26:45;;;;;;;;;;;23.80;91.30;;;;;;4345816;33;44279;-78
2022/06/19 03:29:12;;;;;;;;;;;23.70;90.70;;;;;;4345031;33;45752;-77
2022/06/19 03:31:39;;;;;;;;;;;23.70;91.10;;;;;;4345139;33;44001;-78
2022/06/19 03:34:09;;;;;;;;;;;23.60;90.20;;;;;;4345196;33;44392;-78
2022/06/19 03:36:36;;;;;;;;;;;23.50;90.50;;;;;;4345148;33;44376;-78
2022/06/19 03:39:03;;;;;;;;;;;23.50;90.90;;;;;;4346219;33;45482;-78
2022/06/19 03:41:30;;;;;;;;;;;23.50;90.30;;;;;;4344791;33;45113;-79
2022/06/19 03:43:57;;;;;;;;;;;23.40;90.20;;;;;;4345047;33;45172;-79
2022/06/19 03:46:25;;;;;;;;;;;23.40;90.10;;;;;;4345004;33;44636;-77
2022/06/19 03:48:52;;;;;;;;;;;23.40;90.60;;;;;;4344883;33;44650;-77
2022/06/19 03:51:23;;;;;;;;;;;23.30;90.20;;;;;;4345004;33;44217;-77
2022/06/19 03:53:51;;;;;;;;;;;23.30;90.10;;;;;;4345029;33;43131;-78
2022/06/19 03:56:23;;;;;;;;;;;23.20;88.70;;;;;;4344701;33;42922;-79
2022/06/19 03:58:51;;;;;;;;;;;23.10;89.00;;;;;;4344778;33;46001;-79
2022/06/19 04:01:26;;;;;;;;;;;23.00;88.10;;;;;;4345794;33;44426;-78
2022/06/19 04:03:54;;;;;;;;;;;22.90;88.30;;;;;;4344236;33;44691;-79
2022/06/19 04:06:23;;;;;;;;;;;22.80;86.80;;;;;;4344334;33;44251;-80
2022/06/19 04:08:50;;;;;;;;;;;22.70;86.40;;;;;;4345725;33;44142;-80
2022/06/19 04:11:18;;;;;;;;;;;22.50;88.60;;;;;;4344654;33;43394;-79
2022/06/19 04:13:45;;;;;;;;;;;22.50;87.50;;;;;;4345165;33;43904;-78
2022/06/19 04:16:19;;;;;;;;;;;22.40;88.20;;;;;;4343813;33;42945;-78
2022/06/19 04:18:47;;;;;;;;;;;22.40;87.50;;;;;;4344054;33;42302;-78
2022/06/19 04:21:22;;;;;;;;;;;22.40;87.30;;;;;;4344668;33;44113;-78
2022/06/19 04:23:55;;;;;;;;;;;22.40;87.40;;;;;;4345049;33;44216;-79
2022/06/19 04:26:24;;;;;;;;;;;22.30;87.70;;;;;;4344035;33;43071;-82
2022/06/19 04:28:51;;;;;;;;;;;22.20;87.50;;;;;;4345487;33;44200;-79
2022/06/19 04:31:19;;;;;;;;;;;22.10;87.40;;;;;;4343935;33;43055;-79
2022/06/19 04:33:46;;;;;;;;;;;22.10;86.80;;;;;;4343896;33;44628;-80
2022/06/19 04:36:15;;;;;;;;;;;22.10;86.00;;;;;;4345248;33;43875;-78
2022/06/19 04:38:43;;;;;;;;;;;22.00;87.40;;;;;;4345304;33;44709;-79
2022/06/19 04:41:14;;;;;;;;;;;22.00;86.50;;;;;;4345061;33;43515;-78
2022/06/19 04:43:41;;;;;;;;;;;21.80;86.00;;;;;;4345036;33;43989;-79
2022/06/19 04:46:09;;;;;;;;;;;21.70;85.60;;;;;;4345156;33;43406;-81
2022/06/19 04:48:37;;;;;;;;;;;21.60;86.00;;;;;;4345349;33;45856;-79
2022/06/19 04:51:04;;;;;;;;;;;21.60;86.40;;;;;;4343704;33;43935;-82
2022/06/19 04:53:32;;;;;;;;;;;21.60;86.60;;;;;;4345356;33;43766;-81
2022/06/19 04:56:00;;;;;;;;;;;21.60;85.10;;;;;;4345362;33;28060;-79
2022/06/19 04:58:27;;;;;;;;;;;21.50;84.80;;;;;;4344025;33;42722;-81
2022/06/19 05:00:57;;;;;;;;;;;21.50;85.40;;;;;;4344775;33;43019;-80
2022/06/19 05:03:24;;;;;;;;;;;21.40;85.10;;;;;;4343498;33;44893;-81
2022/06/19 05:05:53;;;;;;;;;;;21.40;85.70;;;;;;4343605;33;42616;-80
2022/06/19 05:08:20;;;;;;;;;;;21.50;85.40;;;;;;4345312;33;44708;-81
2022/06/19 05:10:48;;;;;;;;;;;21.50;85.80;;;;;;4344015;33;43982;-81
2022/06/19 05:13:16;;;;;;;;;;;21.50;85.00;;;;;;4345088;33;43007;-80
2022/06/19 05:15:44;;;;;;;;;;;21.50;85.80;;;;;;4343487;33;45912;-81
2022/06/19 05:18:11;;;;;;;;;;;21.50;85.40;;;;;;4344086;33;43878;-81
2022/06/19 05:20:38;;;;;;;;;;;21.50;84.00;;;;;;4345064;33;44494;-81
2022/06/19 05:23:06;;;;;;;;;;;21.50;84.30;;;;;;4344730;33;43987;-81
2022/06/19 05:25:33;;;;;;;;;;;21.50;83.90;;;;;;4343675;33;44287;-80
2022/06/19 05:28:01;;;;;;;;;;;21.50;83.40;;;;;;4345219;33;42782;-80
2022/06/19 05:30:28;;;;;;;;;;;21.40;84.50;;;;;;4346400;33;42591;-81
2022/06/19 05:32:55;;;;;;;;;;;21.40;83.30;;;;;;4347809;32;42953;-82
2022/06/19 05:35:22;;;;;;;;;;;21.50;83.30;;;;;;4346541;33;43456;-80
2022/06/19 05:37:52;;;;;;;;;;;21.50;83.50;;;;;;4346229;33;44617;-80
2022/06/19 05:40:19;;;;;;;;;;;21.50;83.30;;;;;;4346846;33;44494;-80
2022/06/19 05:42:50;;;;;;;;;;;21.50;83.50;;;;;;4347325;33;45953;-80
2022/06/19 05:45:17;;;;;;;;;;;21.50;83.90;;;;;;4346715;33;42890;-80
2022/06/19 05:47:44;;;;;;;;;;;21.50;83.90;;;;;;4346585;33;42853;-81
2022/06/19 05:50:12;;;;;;;;;;;21.50;84.10;;;;;;4346248;33;42297;-79
2022/06/19 05:52:39;;;;;;;;;;;21.50;84.10;;;;;;4347156;33;43578;-81
2022/06/19 05:55:06;;;;;;;;;;;21.50;84.70;;;;;;4347359;33;43494;-81
2022/06/19 05:57:33;;;;;;;;;;;21.60;84.50;;;;;;4346549;33;43191;-79
2022/06/19 06:00:00;;;;;;;;;;;21.60;83.70;;;;;;4346627;33;43441;-81
2022/06/19 06:02:28;;;;;;;;;;;21.60;84.50;;;;;;4347971;32;44588;-83
2022/06/19 06:04:55;;;;;;;;;;;21.60;84.50;;;;;;4348701;32;44660;-80
2022/06/19 06:07:22;;;;;;;;;;;21.60;84.10;;;;;;4362039;32;43364;-80
2022/06/19 06:09:50;;;;;;;;;;;21.60;84.70;;;;;;4362049;32;43052;-81
2022/06/19 06:12:17;;;;;;;;;;;21.60;84.60;;;;;;4361761;32;43492;-81
2022/06/19 06:14:44;;;;;;;;;;;21.50;84.80;;;;;;4362120;32;44426;-81
2022/06/19 06:17:11;;;;;;;;;;;21.60;84.90;;;;;;4361737;32;43925;-83
2022/06/19 06:19:38;;;;;;;;;;;21.60;85.10;;;;;;4348504;32;43464;-79
2022/06/19 06:22:05;;;;;;;;;;;21.60;85.70;;;;;;4361711;32;43471;-80
2022/06/19 06:24:32;;;;;;;;;;;21.60;85.50;;;;;;4361430;32;43208;-80
2022/06/19 06:27:02;;;;;;;;;;;21.60;85.70;;;;;;4348660;32;43089;-80
2022/06/19 06:29:29;;;;;;;;;;;21.70;85.50;;;;;;4348125;32;42167;-81
2022/06/19 06:31:58;;;;;;;;;;;21.70;85.60;;;;;;4361651;32;43031;-81
2022/06/19 06:34:25;;;;;;;;;;;21.70;85.90;;;;;;4348310;32;44123;-80
2022/06/19 06:36:52;;;;;;;;;;;21.80;85.80;;;;;;4348234;32;43959;-80
2022/06/19 06:39:20;;;;;;;;;;;21.80;85.70;;;;;;4361588;32;44219;-81
2022/06/19 06:41:47;;;;;;;;;;;21.70;85.20;;;;;;4348011;32;42652;-80
2022/06/19 06:44:15;;;;;;;;;;;21.80;85.50;;;;;;4361314;32;42638;-81
2022/06/19 06:46:42;;;;;;;;;;;21.80;85.10;;;;;;4348584;32;44108;-81
2022/06/19 06:49:10;;;;;;;;;;;21.80;84.70;;;;;;4348353;32;43854;-80
2022/06/19 06:51:37;;;;;;;;;;;21.80;83.90;;;;;;4361606;32;43483;-81
2022/06/19 06:54:04;;;;;;;;;;;21.80;84.10;;;;;;4348266;32;43958;-81
2022/06/19 06:56:32;;;;;;;;;;;21.80;83.80;;;;;;4361219;32;44162;-81
2022/06/19 06:59:00;;;;;;;;;;;21.80;82.80;;;;;;4361245;32;43718;-80
2022/06/19 07:01:30;;;;;;;;;;;21.80;83.10;;;;;;4348198;32;43068;-81
2022/06/19 07:03:59;;;;;;;;;;;21.80;82.00;;;;;;4347517;32;43560;-80
2022/06/19 07:06:28;;;;;;;;;;;21.80;81.80;;;;;;4348262;32;44559;-81
2022/06/19 07:08:55;;;;;;;;;;;21.80;81.50;;;;;;4348005;32;44202;-81
2022/06/19 07:11:27;;;;;;;;;;;21.80;80.10;;;;;;4348022;32;43820;-81
2022/06/19 07:13:54;;;;;;;;;;;21.80;80.70;;;;;;4361379;32;45732;-81
2022/06/19 07:16:21;;;;;;;;;;;21.70;79.90;;;;;;4347774;32;43689;-80
2022/06/19 07:18:49;;;;;;;;;;;21.80;81.10;;;;;;4347417;32;44881;-80
2022/06/19 07:21:16;;;;;;;;;;;21.70;80.70;;;;;;4360779;32;46114;-81
2022/06/19 07:23:43;;;;;;;;;;;21.70;81.30;;;;;;4347844;32;43894;-81
2022/06/19 07:26:11;;;;;;;;;;;21.70;80.90;;;;;;4361071;32;43916;-81
2022/06/19 07:28:39;;;;;;;;;;;21.70;80.90;;;;;;4360879;32;42703;-80
2022/06/19 07:31:06;;;;;;;;;;;21.80;80.30;;;;;;4347988;32;43514;-80
2022/06/19 07:33:34;;;;;;;;;;;21.70;80.20;;;;;;4347495;32;43703;-78
2022/06/19 07:36:01;;;;;;;;;;;21.70;79.60;;;;;;4347006;32;44172;-80
2022/06/19 07:38:28;;;;;;;;;;;21.70;80.80;;;;;;4360719;32;44214;-80
2022/06/19 07:40:55;;;;;;;;;;;21.70;80.80;;;;;;4360870;32;43192;-81
2022/06/19 07:43:23;;;;;;;;;;;21.80;80.10;;;;;;4360367;32;43314;-80
2022/06/19 07:45:50;;;;;;;;;;;21.70;80.00;;;;;;4360263;32;43236;-81
2022/06/19 07:51:03;;;;;;;;;;;21.80;80.90;;;;;;4359954;32;42712;-81
2022/06/19 07:53:30;;;;;;;;;;;21.80;80.30;;;;;;4346669;32;42873;-80
2022/06/19 07:55:57;;;;;;;;;;;21.80;80.30;;;;;;4347377;32;45505;-81
2022/06/19 07:58:24;;;;;;;;;;;21.80;81.10;;;;;;4360337;32;45569;-81
2022/06/19 08:00:52;;;;;;;;;;;21.80;79.40;;;;;;4346932;32;45730;-81
2022/06/19 08:03:19;;;;;;;;;;;21.70;78.90;;;;;;4346611;32;44191;-80
2022/06/19 08:05:46;;;;;;;;;;;21.70;81.30;;;;;;4347230;32;43549;-81
2022/06/19 08:08:16;;;;;;;;;;;21.80;79.70;;;;;;4361201;32;20416;-81
2022/06/19 08:10:45;;;;;;;;;;;21.70;79.20;;;;;;4360645;32;43481;-81
2022/06/19 08:13:13;;;;;;;;;;;21.70;79.10;;;;;;4347377;32;43287;-81
2022/06/19 08:15:40;;;;;;;;;;;21.70;80.30;;;;;;4360165;32;44066;-80
2022/06/19 08:18:09;;;;;;;;;;;21.70;79.70;;;;;;4360405;32;43830;-81
2022/06/19 08:20:36;;;;;;;;;;;21.70;79.50;;;;;;4360045;32;43892;-80
2022/06/19 08:23:05;;;;;;;;;;;21.60;78.80;;;;;;4360605;32;45768;-81
2022/06/19 08:25:32;;;;;;;;;;;21.50;79.90;;;;;;4346867;32;42828;-81
2022/06/19 08:28:00;;;;;;;;;;;21.50;79.60;;;;;;4347082;32;43466;-80
2022/06/19 08:30:30;;;;;;;;;;;21.50;79.30;;;;;;4346557;32;43074;-81
2022/06/19 08:33:05;;;;;;;;;;;21.40;79.90;;;;;;4347610;32;45442;-81
2022/06/19 08:35:33;;;;;;;;;;;21.40;81.20;;;;;;4360222;32;43963;-81
2022/06/19 08:38:05;;;;;;;;;;;21.40;80.60;;;;;;4346489;32;42761;-80
2022/06/19 08:40:32;;;;;;;;;;;21.40;81.00;;;;;;4359840;32;42578;-83
2022/06/19 08:43:04;;;;;;;;;;;21.50;81.20;;;;;;4346861;32;45046;-81
2022/06/19 08:45:41;;;;;;;;;;;21.50;81.20;;;;;;4360321;32;44223;-82
2022/06/19 08:48:19;;;;;;;;;;;21.50;81.60;;;;;;4348442;32;19993;-81
2022/06/19 08:50:52;;;;;;;;;;;21.50;81.80;;;;;;4346584;32;42902;-80
2022/06/19 08:53:19;;;;;;;;;;;21.50;82.00;;;;;;4360134;32;42745;-81
2022/06/19 08:56:02;;;;;;;;;;;21.50;81.80;;;;;;4359934;32;45477;-81
2022/06/19 08:58:38;;;;;;;;;;;21.50;82.50;;;;;;4360242;32;46058;-81
2022/06/19 09:01:24;;;;;;;;;;;21.50;82.20;;;;;;4346981;33;43566;-81
2022/06/19 09:07:21;;;;;;;;;;;21.40;83.10;;;;;;4345335;33;43861;-84
2022/06/19 09:09:48;;;;;;;;;;;21.40;84.30;;;;;;4328159;33;44138;-82
2022/06/19 09:12:36;;;;;;;;;;;21.30;83.90;;;;;;4345019;33;43996;-81
2022/06/19 09:15:14;;;;;;;;;;;21.20;84.20;;;;;;4344743;33;42644;-81
2022/06/19 09:17:57;;;;;;;;;;;21.20;83.50;;;;;;4344937;33;44243;-82
2022/06/19 09:20:32;;;;;;;;;;;21.10;83.70;;;;;;4344244;33;44047;-83
2022/06/19 09:23:19;;;;;;;;;;;21.10;83.70;;;;;;4344590;33;44242;-80
2022/06/19 09:25:55;;;;;;;;;;;21.00;83.90;;;;;;4343830;33;43807;-80
2022/06/19 09:28:23;;;;;;;;;;;20.90;84.00;;;;;;4344864;33;45057;-79
2022/06/19 09:31:13;;;;;;;;;;;20.80;84.00;;;;;;4344461;33;44261;-80
2022/06/19 09:34:07;;;;;;;;;;;20.80;84.90;;;;;;4336253;33;44261;-80
2022/06/19 09:36:39;;;;;;;;;;;20.80;85.70;;;;;;4326539;33;44326;-80
2022/06/19 09:39:25;;;;;;;;;;;20.80;86.20;;;;;;4343933;33;43627;-81
2022/06/19 09:41:56;;;;;;;;;;;20.90;85.90;;;;;;4344910;33;43900;-84
2022/06/19 09:44:36;;;;;;;;;;;20.90;86.70;;;;;;4343833;33;43786;-81
2022/06/19 09:47:04;;;;;;;;;;;20.90;86.60;;;;;;4344395;33;20503;-86
2022/06/19 09:49:42;;;;;;;;;;;20.90;86.90;;;;;;4344531;33;21537;-85
2022/06/19 09:52:31;;;;;;;;;;;21.00;86.70;;;;;;4343400;33;44595;-83
2022/06/19 09:55:02;;;;;;;;;;;21.00;86.40;;;;;;4344105;33;43277;-86
2022/06/19 09:57:50;;;;;;;;;;;21.10;86.50;;;;;;4344143;33;44410;-84
2022/06/19 10:00:21;;;;;;;;;;;21.10;86.30;;;;;;4343314;33;43037;-87
2022/06/19 10:03:18;;;;;;;;;;;21.10;86.10;;;;;;4348032;32;45239;-87
2022/06/19 10:06:03;;;;;;;;;;;21.10;86.80;;;;;;4359480;33;45758;-85
2022/06/19 10:08:36;;;;;;;;;;;21.20;86.40;;;;;;4359574;33;42495;-87
2022/06/19 10:11:07;;;;;;;;;;;21.20;85.90;;;;;;4347432;33;20072;-85
2022/06/19 10:13:38;;;;;;;;;;;21.20;86.10;;;;;;4346329;33;44040;-85
2022/06/19 10:16:18;;;;;;;;;;;21.20;86.30;;;;;;4347698;32;45847;-84
2022/06/19 10:18:49;;;;;;;;;;;21.30;85.50;;;;;;4361858;32;44136;-86
2022/06/19 10:24:13;;;;;;;;;;;21.20;84.80;;;;;;4362179;32;43821;-84
2022/06/19 10:26:52;;;;;;;;;;;21.20;85.40;;;;;;4348596;32;42303;-85
2022/06/19 10:29:24;;;;;;;;;;;21.20;85.20;;;;;;4348957;32;45817;-84
2022/06/19 10:31:51;;;;;;;;;;;21.10;85.30;;;;;;4362063;32;44303;-86
2022/06/19 10:34:26;;;;;;;;;;;21.10;85.90;;;;;;4348616;32;44799;-82
2022/06/19 10:36:58;;;;;;;;;;;21.20;86.30;;;;;;4362327;32;43208;-82
2022/06/19 10:39:58;;;;;;;;;;;21.20;85.30;;;;;;4348223;32;43454;-82
2022/06/19 10:42:40;;;;;;;;;;;21.10;85.70;;;;;;4344257;32;43368;-81
2022/06/19 10:45:07;;;;;;;;;;;21.10;85.10;;;;;;4361865;32;45966;-81
2022/06/19 10:47:44;;;;;;;;;;;21.10;84.90;;;;;;4348610;32;43161;-81
2022/06/19 10:50:14;;;;;;;;;;;21.10;84.20;;;;;;4348457;32;44028;-80
2022/06/19 10:52:47;;;;;;;;;;;21.00;84.40;;;;;;4347800;32;45759;-80
2022/06/19 10:55:26;;;;;;;;;;;21.00;84.10;;;;;;4348304;32;46146;-80
2022/06/19 10:57:59;;;;;;;;;;;20.90;84.30;;;;;;4361906;32;44191;-81
2022/06/19 11:00:26;;;;;;;;;;;20.90;84.70;;;;;;4348391;32;43113;-82
2022/06/19 11:05:54;;;;;;;;;;;21.00;85.80;;;;;;4361495;32;45148;-82
2022/06/19 11:08:23;;;;;;;;;;;21.00;85.50;;;;;;4361568;32;43941;-80
2022/06/19 11:10:54;;;;;;;;;;;21.00;84.90;;;;;;4361305;32;43501;-81
2022/06/19 11:13:21;;;;;;;;;;;21.00;86.60;;;;;;4361601;32;43953;-82
2022/06/19 11:16:00;;;;;;;;;;;21.10;86.20;;;;;;4347824;32;43471;-87
2022/06/19 11:18:27;;;;;;;;;;;21.20;86.60;;;;;;4361727;32;43512;-83
2022/06/19 11:21:02;;;;;;;;;;;21.20;86.00;;;;;;4347684;32;43462;-83
2022/06/19 11:23:30;;;;;;;;;;;21.30;85.70;;;;;;4347739;32;45434;-80
2022/06/19 11:26:06;;;;;;;;;;;21.30;85.20;;;;;;4347206;32;43470;-84
2022/06/19 11:28:53;;;;;;;;;;;21.30;85.50;;;;;;4360753;32;43307;-87
2022/06/19 11:31:21;;;;;;;;;;;21.30;84.50;;;;;;4347669;32;45033;-80
2022/06/19 11:33:51;;;;;;;;;;;21.20;85.40;;;;;;4347935;32;44282;-81
2022/06/19 11:36:27;;;;;;;;;;;21.30;85.90;;;;;;4360599;32;43917;-83
2022/06/19 11:38:54;;;;;;;;;;;21.40;85.60;;;;;;4347701;32;44140;-81
2022/06/19 11:41:21;;;;;;;;;;;21.40;85.00;;;;;;4347404;32;42943;-80
2022/06/19 11:44:02;;;;;;;;;;;21.40;86.50;;;;;;4347705;32;44092;-83
2022/06/19 11:46:31;;;;;;;;;;;21.40;87.50;;;;;;4361277;32;44017;-84
2022/06/19 11:49:18;;;;;;;;;;;21.50;87.00;;;;;;4347214;32;42258;-83
2022/06/19 11:51:45;;;;;;;;;;;21.50;86.80;;;;;;4360590;32;43045;-83
2022/06/19 11:54:14;;;;;;;;;;;21.60;87.10;;;;;;4360856;32;45433;-84
2022/06/19 11:56:42;;;;;;;;;;;21.60;87.00;;;;;;4347593;32;43472;-84
2022/06/19 11:59:24;;;;;;;;;;;21.60;87.20;;;;;;4360414;32;43482;-82
2022/06/19 12:01:52;;;;;;;;;;;21.60;86.60;;;;;;4346930;32;42703;-81
2022/06/19 12:04:19;;;;;;;;;;;21.60;86.60;;;;;;4346928;32;44145;-83
2022/06/19 12:06:50;;;;;;;;;;;21.60;86.80;;;;;;4347175;32;44122;-83
2022/06/19 12:09:37;;;;;;;;;;;21.60;87.20;;;;;;4347560;32;45187;-83
2022/06/19 12:12:07;;;;;;;;;;;21.70;87.10;;;;;;4360539;32;45385;-81
2022/06/19 12:14:37;;;;;;;;;;;21.60;86.80;;;;;;4361574;32;20048;-83
2022/06/19 12:17:27;;;;;;;;;;;21.70;87.20;;;;;;4346787;32;42552;-83
2022/06/19 12:19:56;;;;;;;;;;;21.70;86.90;;;;;;4347246;32;46232;-82
2022/06/19 12:22:44;;;;;;;;;;;21.70;86.50;;;;;;4347278;32;44071;-82
2022/06/19 12:25:15;;;;;;;;;;;21.70;87.10;;;;;;4354824;32;44595;-80
2022/06/19 12:27:46;;;;;;;;;;;21.80;87.60;;;;;;4347089;32;44584;-86
2022/06/19 12:30:20;;;;;;;;;;;21.80;87.40;;;;;;4347276;32;43816;-81
2022/06/19 12:32:50;;;;;;;;;;;21.80;87.40;;;;;;4360429;32;43356;-82
2022/06/19 12:35:24;;;;;;;;;;;21.80;87.30;;;;;;4347193;32;43977;-81
2022/06/19 12:37:51;;;;;;;;;;;21.80;86.80;;;;;;4359953;32;43552;-80
2022/06/19 12:40:20;;;;;;;;;;;21.80;86.60;;;;;;4360013;32;44072;-81
2022/06/19 12:43:15;;;;;;;;;;;21.80;86.00;;;;;;4359756;32;43090;-80
2022/06/19 12:45:52;;;;;;;;;;;21.80;85.90;;;;;;4360865;32;20006;-81
2022/06/19 12:48:34;;;;;;;;;;;21.80;86.60;;;;;;4346507;32;42732;-80
2022/06/19 12:51:09;;;;;;;;;;;21.80;86.80;;;;;;4346971;32;43975;-81
2022/06/19 12:53:55;;;;;;;;;;;21.80;87.20;;;;;;4346840;32;45323;-81
2022/06/19 12:56:22;;;;;;;;;;;21.90;87.80;;;;;;4360160;32;43562;-80
2022/06/19 12:59:08;;;;;;;;;;;21.90;87.80;;;;;;4359636;32;44376;-82
2022/06/19 13:01:54;;;;;;;;;;;21.90;87.00;;;;;;4360279;32;43401;-82
2022/06/19 13:04:40;;;;;;;;;;;21.90;87.00;;;;;;4346277;33;43505;-82
2022/06/19 13:07:13;;;;;;;;;;;21.90;86.90;;;;;;4359902;33;44419;-82
2022/06/19 13:09:43;;;;;;;;;;;21.90;87.30;;;;;;4359988;33;44109;-82
2022/06/19 13:12:15;;;;;;;;;;;21.90;87.20;;;;;;4359975;33;45666;-84
2022/06/19 13:15:05;;;;;;;;;;;21.90;87.60;;;;;;4360022;33;44626;-83
2022/06/19 13:17:35;;;;;;;;;;;22.00;87.90;;;;;;4347431;33;20009;-83
2022/06/19 13:20:21;;;;;;;;;;;22.00;87.60;;;;;;4346276;33;44451;-81
2022/06/19 13:23:07;;;;;;;;;;;22.00;87.00;;;;;;4359803;33;42791;-82
2022/06/19 13:25:51;;;;;;;;;;;22.00;87.70;;;;;;4346147;33;44271;-82
2022/06/19 13:28:28;;;;;;;;;;;22.10;87.40;;;;;;4360066;33;46060;-84
2022/06/19 13:31:04;;;;;;;;;;;22.10;88.00;;;;;;4346871;33;44026;-86
2022/06/19 13:33:40;;;;;;;;;;;22.10;87.70;;;;;;4346341;33;42874;-83
2022/06/19 13:36:16;;;;;;;;;;;22.10;87.90;;;;;;4346465;33;43974;-82
2022/06/19 13:39:13;;;;;;;;;;;22.10;87.20;;;;;;4346593;33;44593;-84
2022/06/19 13:41:40;;;;;;;;;;;22.10;87.90;;;;;;4339680;33;44117;-85
2022/06/19 13:44:24;;;;;;;;;;;22.10;87.90;;;;;;4359334;32;44113;-82
2022/06/19 13:46:59;;;;;;;;;;;22.10;87.90;;;;;;4359656;33;43416;-81
2022/06/19 13:49:30;;;;;;;;;;;22.10;88.40;;;;;;4347751;32;45834;-82
2022/06/19 13:52:03;;;;;;;;;;;22.20;88.50;;;;;;4349379;32;44834;-82
2022/06/19 13:54:49;;;;;;;;;;;22.20;88.90;;;;;;4349001;32;42487;-83
2022/06/19 13:57:22;;;;;;;;;;;22.20;88.90;;;;;;4362869;32;44114;-84
2022/06/19 14:00:16;;;;;;;;;;;22.20;88.90;;;;;;4349143;32;44181;-81
2022/06/19 14:03:01;;;;;;;;;;;22.20;88.70;;;;;;4348788;32;42870;-83
2022/06/19 14:05:32;;;;;;;;;;;22.30;88.70;;;;;;4362586;32;43250;-84
2022/06/19 14:08:17;;;;;;;;;;;22.20;88.70;;;;;;4362105;32;43467;-83
2022/06/19 14:11:06;;;;;;;;;;;22.30;89.20;;;;;;4348965;32;44471;-81
2022/06/19 14:13:58;;;;;;;;;;;22.30;89.30;;;;;;4351273;32;45109;-83
2022/06/19 14:16:31;;;;;;;;;;;22.30;89.70;;;;;;4348706;32;42687;-83
2022/06/19 14:19:20;;;;;;;;;;;22.30;89.90;;;;;;4362181;32;44290;-84
2022/06/19 14:21:47;;;;;;;;;;;22.30;90.00;;;;;;4348900;32;44252;-82
2022/06/19 14:24:23;;;;;;;;;;;22.30;90.10;;;;;;4348313;32;44304;-81
2022/06/19 14:27:03;;;;;;;;;;;22.30;90.30;;;;;;4362159;32;46327;-81
2022/06/19 14:29:34;;;;;;;;;;;22.30;90.30;;;;;;4362014;32;45380;-85
2022/06/19 14:32:01;;;;;;;;;;;22.40;90.30;;;;;;4348640;32;43380;-80
2022/06/19 14:34:47;;;;;;;;;;;22.40;90.40;;;;;;4348706;32;43907;-82
2022/06/19 14:37:20;;;;;;;;;;;22.40;90.20;;;;;;4348572;32;45749;-81
2022/06/19 14:39:49;;;;;;;;;;;22.40;90.00;;;;;;4349026;32;43240;-81
2022/06/19 14:42:18;;;;;;;;;;;22.40;90.00;;;;;;4348719;32;43962;-81
2022/06/19 14:44:46;;;;;;;;;;;22.40;90.00;;;;;;4348079;32;42905;-81
2022/06/19 14:47:24;;;;;;;;;;;22.40;90.10;;;;;;4361774;32;43938;-79
2022/06/19 14:50:01;;;;;;;;;;;22.50;90.10;;;;;;4349032;32;20472;-80
2022/06/19 14:52:28;;;;;;;;;;;22.40;90.10;;;;;;4361923;32;44034;-80
2022/06/19 14:55:14;;;;;;;;;;;22.40;90.10;;;;;;4361724;32;43851;-81